sensor_id;sensor_type;location;lat;lon;timestamp;temperature;humidity
20442;DHT22;10380;52.102;20.614;2023-11-21T00:00:04;2.50;99.90
20442;DHT22;10380;52.102;20.614;2023-11-21T00:02:38;2.50;99.90
20442;DHT22;10380;52.102;20.614;2023-11-21T00:05:11;2.50;99.90
20442;DHT22;10380;52.102;20.614;2023-11-21T00:07:40;2.50;99.90
20442;DHT22;10380;52.102;20.614;2023-11-21T00:10:08;2.50;99.90
20442;DHT22;10380;52.102;20.614;2023-11-21T00:12:37;2.50;99.90
20442;DHT22;10380;52.102;20.614;2023-11-21T00:15:05;2.50;99.90
20442;DHT22;10380;52.102;20.614;2023-11-21T00:17:32;2.50;99.90
20442;DHT22;10380;52.102;20.614;2023-11-21T00:19:59;2.50;99.90
20442;DHT22;10380;52.102;20.614;2023-11-21T00:22:26;2.50;99.90
20442;DHT22;10380;52.102;20.614;2023-11-21T00:24:53;2.50;99.90
20442;DHT22;10380;52.102;20.614;2023-11-21T00:27:20;2.40;99.90
20442;DHT22;10380;52.102;20.614;2023-11-21T00:29:47;2.40;99.90
20442;DHT22;10380;52.102;20.614;2023-11-21T00:32:14;2.50;99.90
20442;DHT22;10380;52.102;20.614;2023-11-21T00:34:42;2.40;99.90
20442;DHT22;10380;52.102;20.614;2023-11-21T00:37:09;2.50;99.90
20442;DHT22;10380;52.102;20.614;2023-11-21T00:39:36;2.40;99.90
20442;DHT22;10380;52.102;20.614;2023-11-21T00:42:04;2.40;99.90
20442;DHT22;10380;52.102;20.614;2023-11-21T00:44:31;2.40;99.90
20442;DHT22;10380;52.102;20.614;2023-11-21T00:46:58;2.40;99.90
20442;DHT22;10380;52.102;20.614;2023-11-21T00:49:25;2.40;99.90
20442;DHT22;10380;52.102;20.614;2023-11-21T00:51:52;2.40;99.90
20442;DHT22;10380;52.102;20.614;2023-11-21T00:54:19;2.40;99.90
20442;DHT22;10380;52.102;20.614;2023-11-21T00:56:47;2.40;99.90
20442;DHT22;10380;52.102;20.614;2023-11-21T00:59:14;2.40;99.90
20442;DHT22;10380;52.102;20.614;2023-11-21T01:01:41;2.40;99.90
20442;DHT22;10380;52.102;20.614;2023-11-21T01:04:09;2.40;99.90
20442;DHT22;10380;52.102;20.614;2023-11-21T01:06:36;2.40;99.90
20442;DHT22;10380;52.102;20.614;2023-11-21T01:09:03;2.40;99.90
20442;DHT22;10380;52.102;20.614;2023-11-21T01:11:35;2.30;99.90
20442;DHT22;10380;52.102;20.614;2023-11-21T01:14:04;2.30;99.90
20442;DHT22;10380;52.102;20.614;2023-11-21T01:16:31;2.30;99.90
20442;DHT22;10380;52.102;20.614;2023-11-21T01:19:01;2.30;99.90
20442;DHT22;10380;52.102;20.614;2023-11-21T01:21:28;2.40;99.90
20442;DHT22;10380;52.102;20.614;2023-11-21T01:23:56;2.30;99.90
20442;DHT22;10380;52.102;20.614;2023-11-21T01:26:24;2.30;99.90
20442;DHT22;10380;52.102;20.614;2023-11-21T01:28:51;2.30;99.90
20442;DHT22;10380;52.102;20.614;2023-11-21T01:31:18;2.30;99.90
20442;DHT22;10380;52.102;20.614;2023-11-21T01:33:46;2.20;99.90
20442;DHT22;10380;52.102;20.614;2023-11-21T01:36:14;2.20;99.90
20442;DHT22;10380;52.102;20.614;2023-11-21T01:38:40;2.20;99.90
20442;DHT22;10380;52.102;20.614;2023-11-21T01:41:08;2.20;99.90
20442;DHT22;10380;52.102;20.614;2023-11-21T01:43:37;2.20;99.90
20442;DHT22;10380;52.102;20.614;2023-11-21T01:46:05;2.20;99.90
20442;DHT22;10380;52.102;20.614;2023-11-21T01:48:33;2.20;99.90
20442;DHT22;10380;52.102;20.614;2023-11-21T01:51:02;2.20;99.90
20442;DHT22;10380;52.102;20.614;2023-11-21T01:53:29;2.20;99.90
20442;DHT22;10380;52.102;20.614;2023-11-21T01:55:56;2.20;99.90
20442;DHT22;10380;52.102;20.614;2023-11-21T01:58:24;2.20;99.90
20442;DHT22;10380;52.102;20.614;2023-11-21T02:00:52;2.20;99.90
20442;DHT22;10380;52.102;20.614;2023-11-21T02:03:21;2.20;99.90
20442;DHT22;10380;52.102;20.614;2023-11-21T02:05:49;2.30;99.90
20442;DHT22;10380;52.102;20.614;2023-11-21T02:08:16;2.20;99.90
20442;DHT22;10380;52.102;20.614;2023-11-21T02:10:43;2.10;99.90
20442;DHT22;10380;52.102;20.614;2023-11-21T02:13:10;2.10;99.90
20442;DHT22;10380;52.102;20.614;2023-11-21T02:15:38;2.10;99.90
20442;DHT22;10380;52.102;20.614;2023-11-21T02:18:05;2.10;99.90
20442;DHT22;10380;52.102;20.614;2023-11-21T02:20:33;2.00;99.90
20442;DHT22;10380;52.102;20.614;2023-11-21T02:23:02;2.00;99.90
20442;DHT22;10380;52.102;20.614;2023-11-21T02:25:30;2.00;99.90
20442;DHT22;10380;52.102;20.614;2023-11-21T02:28:00;2.00;99.90
20442;DHT22;10380;52.102;20.614;2023-11-21T02:30:28;2.00;99.90
20442;DHT22;10380;52.102;20.614;2023-11-21T02:32:55;1.90;99.90
20442;DHT22;10380;52.102;20.614;2023-11-21T02:35:24;1.90;99.90
20442;DHT22;10380;52.102;20.614;2023-11-21T02:37:54;1.90;99.90
20442;DHT22;10380;52.102;20.614;2023-11-21T02:40:22;2.00;99.90
20442;DHT22;10380;52.102;20.614;2023-11-21T02:42:52;1.90;99.90
20442;DHT22;10380;52.102;20.614;2023-11-21T02:45:22;1.90;99.90
20442;DHT22;10380;52.102;20.614;2023-11-21T02:47:49;2.50;99.90
20442;DHT22;10380;52.102;20.614;2023-11-21T02:50:16;1.80;99.90
20442;DHT22;10380;52.102;20.614;2023-11-21T02:52:47;1.80;99.90
20442;DHT22;10380;52.102;20.614;2023-11-21T02:55:14;1.80;99.90
20442;DHT22;10380;52.102;20.614;2023-11-21T02:57:41;1.80;99.90
20442;DHT22;10380;52.102;20.614;2023-11-21T03:00:09;1.70;99.90
20442;DHT22;10380;52.102;20.614;2023-11-21T03:02:42;1.80;99.90
20442;DHT22;10380;52.102;20.614;2023-11-21T03:05:10;1.80;99.90
20442;DHT22;10380;52.102;20.614;2023-11-21T03:07:38;1.70;99.90
20442;DHT22;10380;52.102;20.614;2023-11-21T03:10:07;1.70;99.90
20442;DHT22;10380;52.102;20.614;2023-11-21T03:12:40;1.70;99.90
20442;DHT22;10380;52.102;20.614;2023-11-21T03:15:07;1.70;99.90
20442;DHT22;10380;52.102;20.614;2023-11-21T03:17:35;1.60;99.90
20442;DHT22;10380;52.102;20.614;2023-11-21T03:20:05;1.60;99.90
20442;DHT22;10380;52.102;20.614;2023-11-21T03:22:32;1.60;99.90
20442;DHT22;10380;52.102;20.614;2023-11-21T03:25:00;1.70;99.90
20442;DHT22;10380;52.102;20.614;2023-11-21T03:27:27;1.60;99.90
20442;DHT22;10380;52.102;20.614;2023-11-21T03:29:54;1.60;99.90
20442;DHT22;10380;52.102;20.614;2023-11-21T03:32:21;1.60;99.90
20442;DHT22;10380;52.102;20.614;2023-11-21T03:34:56;1.50;99.90
20442;DHT22;10380;52.102;20.614;2023-11-21T03:37:25;1.50;99.90
20442;DHT22;10380;52.102;20.614;2023-11-21T03:39:55;1.80;99.90
20442;DHT22;10380;52.102;20.614;2023-11-21T03:42:23;1.40;99.90
20442;DHT22;10380;52.102;20.614;2023-11-21T03:44:54;1.40;99.90
20442;DHT22;10380;52.102;20.614;2023-11-21T03:47:21;1.40;99.90
20442;DHT22;10380;52.102;20.614;2023-11-21T03:49:48;1.60;99.90
20442;DHT22;10380;52.102;20.614;2023-11-21T03:52:15;1.40;99.90
20442;DHT22;10380;52.102;20.614;2023-11-21T03:54:43;1.40;99.90
20442;DHT22;10380;52.102;20.614;2023-11-21T03:57:11;1.30;99.90
20442;DHT22;10380;52.102;20.614;2023-11-21T03:59:42;1.40;99.90
20442;DHT22;10380;52.102;20.614;2023-11-21T04:02:09;1.30;99.90
20442;DHT22;10380;52.102;20.614;2023-11-21T04:04:36;1.30;99.90
20442;DHT22;10380;52.102;20.614;2023-11-21T04:07:04;1.30;99.90
20442;DHT22;10380;52.102;20.614;2023-11-21T04:09:31;1.40;99.90
20442;DHT22;10380;52.102;20.614;2023-11-21T04:11:58;1.20;99.90
20442;DHT22;10380;52.102;20.614;2023-11-21T04:14:26;1.20;99.90
20442;DHT22;10380;52.102;20.614;2023-11-21T04:16:53;1.20;99.90
20442;DHT22;10380;52.102;20.614;2023-11-21T04:19:21;1.20;99.90
20442;DHT22;10380;52.102;20.614;2023-11-21T04:21:49;1.20;99.90
20442;DHT22;10380;52.102;20.614;2023-11-21T04:24:16;1.40;99.90
20442;DHT22;10380;52.102;20.614;2023-11-21T04:26:44;1.20;99.90
20442;DHT22;10380;52.102;20.614;2023-11-21T04:29:11;1.20;99.90
20442;DHT22;10380;52.102;20.614;2023-11-21T04:31:38;1.20;99.90
20442;DHT22;10380;52.102;20.614;2023-11-21T04:34:07;1.20;99.90
20442;DHT22;10380;52.102;20.614;2023-11-21T04:36:34;1.10;99.90
20442;DHT22;10380;52.102;20.614;2023-11-21T04:39:02;1.40;99.90
20442;DHT22;10380;52.102;20.614;2023-11-21T04:41:29;1.20;99.90
20442;DHT22;10380;52.102;20.614;2023-11-21T04:43:59;1.20;99.90
20442;DHT22;10380;52.102;20.614;2023-11-21T04:46:29;1.20;99.90
20442;DHT22;10380;52.102;20.614;2023-11-21T04:48:57;1.20;99.90
20442;DHT22;10380;52.102;20.614;2023-11-21T04:51:24;1.20;99.90
20442;DHT22;10380;52.102;20.614;2023-11-21T04:53:51;1.10;99.90
20442;DHT22;10380;52.102;20.614;2023-11-21T04:56:18;1.60;99.90
20442;DHT22;10380;52.102;20.614;2023-11-21T04:58:45;1.20;99.90
20442;DHT22;10380;52.102;20.614;2023-11-21T05:01:12;1.20;99.90
20442;DHT22;10380;52.102;20.614;2023-11-21T05:03:39;1.20;99.90
20442;DHT22;10380;52.102;20.614;2023-11-21T05:06:09;1.20;99.90
20442;DHT22;10380;52.102;20.614;2023-11-21T05:08:37;1.20;99.90
20442;DHT22;10380;52.102;20.614;2023-11-21T05:11:04;1.10;99.90
20442;DHT22;10380;52.102;20.614;2023-11-21T05:13:34;1.10;99.90
20442;DHT22;10380;52.102;20.614;2023-11-21T05:16:01;1.10;99.90
20442;DHT22;10380;52.102;20.614;2023-11-21T05:18:30;1.10;99.90
20442;DHT22;10380;52.102;20.614;2023-11-21T05:20:57;1.20;99.90
20442;DHT22;10380;52.102;20.614;2023-11-21T05:23:25;1.20;99.90
20442;DHT22;10380;52.102;20.614;2023-11-21T05:25:52;1.10;99.90
20442;DHT22;10380;52.102;20.614;2023-11-21T05:28:19;1.50;99.90
20442;DHT22;10380;52.102;20.614;2023-11-21T05:30:46;1.00;99.90
20442;DHT22;10380;52.102;20.614;2023-11-21T05:33:13;1.10;99.90
20442;DHT22;10380;52.102;20.614;2023-11-21T05:35:40;1.10;99.90
20442;DHT22;10380;52.102;20.614;2023-11-21T05:38:07;1.00;99.90
20442;DHT22;10380;52.102;20.614;2023-11-21T05:40:34;1.00;99.90
20442;DHT22;10380;52.102;20.614;2023-11-21T05:43:01;1.00;99.90
20442;DHT22;10380;52.102;20.614;2023-11-21T05:45:28;1.10;99.90
20442;DHT22;10380;52.102;20.614;2023-11-21T05:47:58;1.00;99.90
20442;DHT22;10380;52.102;20.614;2023-11-21T05:50:25;0.90;99.90
20442;DHT22;10380;52.102;20.614;2023-11-21T05:52:52;0.90;99.90
20442;DHT22;10380;52.102;20.614;2023-11-21T05:55:22;0.80;99.90
20442;DHT22;10380;52.102;20.614;2023-11-21T05:57:52;0.90;99.90
20442;DHT22;10380;52.102;20.614;2023-11-21T06:00:20;1.30;99.90
20442;DHT22;10380;52.102;20.614;2023-11-21T06:02:53;0.80;99.90
20442;DHT22;10380;52.102;20.614;2023-11-21T06:05:23;0.80;99.90
20442;DHT22;10380;52.102;20.614;2023-11-21T06:07:53;0.80;99.90
20442;DHT22;10380;52.102;20.614;2023-11-21T06:10:21;0.80;99.90
20442;DHT22;10380;52.102;20.614;2023-11-21T06:12:52;0.80;99.90
20442;DHT22;10380;52.102;20.614;2023-11-21T06:15:20;0.80;99.90
20442;DHT22;10380;52.102;20.614;2023-11-21T06:17:49;0.80;99.90
20442;DHT22;10380;52.102;20.614;2023-11-21T06:20:16;0.80;99.90
20442;DHT22;10380;52.102;20.614;2023-11-21T06:22:48;0.80;99.90
20442;DHT22;10380;52.102;20.614;2023-11-21T06:25:16;0.80;99.90
20442;DHT22;10380;52.102;20.614;2023-11-21T06:27:46;0.80;99.90
20442;DHT22;10380;52.102;20.614;2023-11-21T06:30:14;0.80;99.90
20442;DHT22;10380;52.102;20.614;2023-11-21T06:32:42;0.80;99.90
20442;DHT22;10380;52.102;20.614;2023-11-21T06:35:16;1.10;99.90
20442;DHT22;10380;52.102;20.614;2023-11-21T06:37:44;0.80;99.90
20442;DHT22;10380;52.102;20.614;2023-11-21T06:40:17;0.90;99.90
20442;DHT22;10380;52.102;20.614;2023-11-21T06:42:48;0.90;99.90
20442;DHT22;10380;52.102;20.614;2023-11-21T06:45:16;0.90;99.90
20442;DHT22;10380;52.102;20.614;2023-11-21T06:47:43;0.90;99.90
20442;DHT22;10380;52.102;20.614;2023-11-21T06:50:11;0.90;99.90
20442;DHT22;10380;52.102;20.614;2023-11-21T06:52:38;0.90;99.90
20442;DHT22;10380;52.102;20.614;2023-11-21T06:55:06;0.90;99.90
20442;DHT22;10380;52.102;20.614;2023-11-21T06:57:36;0.80;99.90
20442;DHT22;10380;52.102;20.614;2023-11-21T07:00:03;0.80;99.90
20442;DHT22;10380;52.102;20.614;2023-11-21T07:02:31;0.80;99.90
20442;DHT22;10380;52.102;20.614;2023-11-21T07:04:58;0.80;99.90
20442;DHT22;10380;52.102;20.614;2023-11-21T07:07:26;0.70;99.90
20442;DHT22;10380;52.102;20.614;2023-11-21T07:09:59;0.70;99.90
20442;DHT22;10380;52.102;20.614;2023-11-21T07:12:30;0.70;99.90
20442;DHT22;10380;52.102;20.614;2023-11-21T07:15:01;0.80;99.90
20442;DHT22;10380;52.102;20.614;2023-11-21T07:17:29;0.70;99.90
20442;DHT22;10380;52.102;20.614;2023-11-21T07:19:56;0.70;99.90
20442;DHT22;10380;52.102;20.614;2023-11-21T07:22:24;0.80;99.90
20442;DHT22;10380;52.102;20.614;2023-11-21T07:24:51;1.40;99.90
20442;DHT22;10380;52.102;20.614;2023-11-21T07:27:18;0.80;99.90
20442;DHT22;10380;52.102;20.614;2023-11-21T07:29:47;1.20;99.90
20442;DHT22;10380;52.102;20.614;2023-11-21T07:32:15;0.80;99.90
20442;DHT22;10380;52.102;20.614;2023-11-21T07:34:43;0.90;99.90
20442;DHT22;10380;52.102;20.614;2023-11-21T07:37:10;0.80;99.90
20442;DHT22;10380;52.102;20.614;2023-11-21T07:39:37;0.70;99.90
20442;DHT22;10380;52.102;20.614;2023-11-21T07:42:04;0.70;99.90
20442;DHT22;10380;52.102;20.614;2023-11-21T07:44:31;0.70;99.90
20442;DHT22;10380;52.102;20.614;2023-11-21T07:46:58;0.80;99.90
20442;DHT22;10380;52.102;20.614;2023-11-21T07:49:25;0.70;99.90
20442;DHT22;10380;52.102;20.614;2023-11-21T07:51:53;0.70;99.90
20442;DHT22;10380;52.102;20.614;2023-11-21T07:54:20;0.80;99.90
20442;DHT22;10380;52.102;20.614;2023-11-21T07:56:48;0.80;99.90
20442;DHT22;10380;52.102;20.614;2023-11-21T07:59:15;0.80;99.90
20442;DHT22;10380;52.102;20.614;2023-11-21T08:01:42;1.00;99.90
20442;DHT22;10380;52.102;20.614;2023-11-21T08:04:10;0.90;99.90
20442;DHT22;10380;52.102;20.614;2023-11-21T08:06:37;1.00;99.90
20442;DHT22;10380;52.102;20.614;2023-11-21T08:09:04;0.90;99.90
20442;DHT22;10380;52.102;20.614;2023-11-21T08:11:31;1.10;99.90
20442;DHT22;10380;52.102;20.614;2023-11-21T08:13:59;0.90;99.90
20442;DHT22;10380;52.102;20.614;2023-11-21T08:16:27;2.00;99.90
20442;DHT22;10380;52.102;20.614;2023-11-21T08:18:54;1.50;99.90
20442;DHT22;10380;52.102;20.614;2023-11-21T08:21:22;1.00;99.90
20442;DHT22;10380;52.102;20.614;2023-11-21T08:23:51;0.90;99.90
20442;DHT22;10380;52.102;20.614;2023-11-21T08:26:22;0.90;99.90
20442;DHT22;10380;52.102;20.614;2023-11-21T08:28:49;0.90;99.90
20442;DHT22;10380;52.102;20.614;2023-11-21T08:31:16;0.80;99.90
20442;DHT22;10380;52.102;20.614;2023-11-21T08:33:43;1.80;99.90
20442;DHT22;10380;52.102;20.614;2023-11-21T08:36:10;0.80;99.90
20442;DHT22;10380;52.102;20.614;2023-11-21T08:38:39;0.70;99.90
20442;DHT22;10380;52.102;20.614;2023-11-21T08:41:06;0.70;99.90
20442;DHT22;10380;52.102;20.614;2023-11-21T08:43:35;0.70;99.90
20442;DHT22;10380;52.102;20.614;2023-11-21T08:46:02;0.70;99.90
20442;DHT22;10380;52.102;20.614;2023-11-21T08:48:30;0.70;99.90
20442;DHT22;10380;52.102;20.614;2023-11-21T08:50:57;0.70;99.90
20442;DHT22;10380;52.102;20.614;2023-11-21T08:53:25;0.70;99.90
20442;DHT22;10380;52.102;20.614;2023-11-21T08:55:53;0.70;99.90
20442;DHT22;10380;52.102;20.614;2023-11-21T08:58:21;1.10;99.90
20442;DHT22;10380;52.102;20.614;2023-11-21T09:00:48;0.70;99.90
20442;DHT22;10380;52.102;20.614;2023-11-21T09:03:15;0.80;99.90
20442;DHT22;10380;52.102;20.614;2023-11-21T09:05:42;0.80;99.90
20442;DHT22;10380;52.102;20.614;2023-11-21T09:08:10;0.80;99.90
20442;DHT22;10380;52.102;20.614;2023-11-21T09:10:37;0.80;99.90
20442;DHT22;10380;52.102;20.614;2023-11-21T09:13:04;0.80;99.90
20442;DHT22;10380;52.102;20.614;2023-11-21T09:15:31;0.80;99.90
20442;DHT22;10380;52.102;20.614;2023-11-21T09:17:58;1.80;99.90
20442;DHT22;10380;52.102;20.614;2023-11-21T09:20:25;0.80;99.90
20442;DHT22;10380;52.102;20.614;2023-11-21T09:22:52;0.80;99.90
20442;DHT22;10380;52.102;20.614;2023-11-21T09:25:21;0.80;99.90
20442;DHT22;10380;52.102;20.614;2023-11-21T09:27:48;0.80;99.90
20442;DHT22;10380;52.102;20.614;2023-11-21T09:30:15;0.80;99.90
20442;DHT22;10380;52.102;20.614;2023-11-21T09:32:43;0.70;99.90
20442;DHT22;10380;52.102;20.614;2023-11-21T09:35:12;0.70;99.90
20442;DHT22;10380;52.102;20.614;2023-11-21T09:37:41;0.60;99.90
20442;DHT22;10380;52.102;20.614;2023-11-21T09:40:11;0.60;99.90
20442;DHT22;10380;52.102;20.614;2023-11-21T09:42:52;0.70;99.90
20442;DHT22;10380;52.102;20.614;2023-11-21T09:45:32;0.70;99.90
20442;DHT22;10380;52.102;20.614;2023-11-21T09:48:01;0.70;99.90
20442;DHT22;10380;52.102;20.614;2023-11-21T09:50:28;0.70;99.90
20442;DHT22;10380;52.102;20.614;2023-11-21T09:53:18;0.70;99.90
20442;DHT22;10380;52.102;20.614;2023-11-21T09:55:50;0.80;99.90
20442;DHT22;10380;52.102;20.614;2023-11-21T09:58:19;0.80;99.90
20442;DHT22;10380;52.102;20.614;2023-11-21T10:00:51;1.50;99.90
20442;DHT22;10380;52.102;20.614;2023-11-21T10:03:19;0.90;99.90
20442;DHT22;10380;52.102;20.614;2023-11-21T10:05:48;1.20;99.90
20442;DHT22;10380;52.102;20.614;2023-11-21T10:08:17;0.90;99.90
20442;DHT22;10380;52.102;20.614;2023-11-21T10:10:49;0.90;99.90
20442;DHT22;10380;52.102;20.614;2023-11-21T10:13:18;1.10;99.90
20442;DHT22;10380;52.102;20.614;2023-11-21T10:15:52;1.00;99.90
20442;DHT22;10380;52.102;20.614;2023-11-21T10:18:20;0.90;99.90
20442;DHT22;10380;52.102;20.614;2023-11-21T10:20:49;1.10;99.90
20442;DHT22;10380;52.102;20.614;2023-11-21T10:23:24;0.90;99.90
20442;DHT22;10380;52.102;20.614;2023-11-21T10:25:52;1.20;99.90
20442;DHT22;10380;52.102;20.614;2023-11-21T10:28:20;0.90;99.90
20442;DHT22;10380;52.102;20.614;2023-11-21T10:30:48;0.90;99.90
20442;DHT22;10380;52.102;20.614;2023-11-21T10:33:15;0.90;99.90
20442;DHT22;10380;52.102;20.614;2023-11-21T10:35:48;0.90;99.90
20442;DHT22;10380;52.102;20.614;2023-11-21T10:38:18;0.90;99.90
20442;DHT22;10380;52.102;20.614;2023-11-21T10:40:48;0.90;99.90
20442;DHT22;10380;52.102;20.614;2023-11-21T10:43:17;1.00;99.90
20442;DHT22;10380;52.102;20.614;2023-11-21T10:45:45;1.10;99.90
20442;DHT22;10380;52.102;20.614;2023-11-21T10:48:14;1.10;99.90
20442;DHT22;10380;52.102;20.614;2023-11-21T10:50:46;1.10;99.90
20442;DHT22;10380;52.102;20.614;2023-11-21T10:53:13;1.40;99.90
20442;DHT22;10380;52.102;20.614;2023-11-21T10:55:41;1.00;99.90
20442;DHT22;10380;52.102;20.614;2023-11-21T10:58:10;0.90;99.90
20442;DHT22;10380;52.102;20.614;2023-11-21T11:00:40;0.80;99.90
20442;DHT22;10380;52.102;20.614;2023-11-21T11:03:08;0.80;99.90
20442;DHT22;10380;52.102;20.614;2023-11-21T11:05:44;0.70;99.90
20442;DHT22;10380;52.102;20.614;2023-11-21T11:08:29;0.80;99.90
20442;DHT22;10380;52.102;20.614;2023-11-21T11:10:56;0.60;99.90
20442;DHT22;10380;52.102;20.614;2023-11-21T11:13:25;0.60;99.90
20442;DHT22;10380;52.102;20.614;2023-11-21T11:15:58;0.70;99.90
20442;DHT22;10380;52.102;20.614;2023-11-21T11:18:34;0.70;99.90
20442;DHT22;10380;52.102;20.614;2023-11-21T11:30:04;0.90;99.90
20442;DHT22;10380;52.102;20.614;2023-11-21T11:35:16;0.90;99.90
20442;DHT22;10380;52.102;20.614;2023-11-21T11:37:44;0.90;99.90
20442;DHT22;10380;52.102;20.614;2023-11-21T11:40:12;0.90;99.90
20442;DHT22;10380;52.102;20.614;2023-11-21T11:42:39;0.90;99.90
20442;DHT22;10380;52.102;20.614;2023-11-21T11:45:19;0.80;99.90
20442;DHT22;10380;52.102;20.614;2023-11-21T11:47:47;0.80;99.90
20442;DHT22;10380;52.102;20.614;2023-11-21T11:50:15;0.80;99.90
20442;DHT22;10380;52.102;20.614;2023-11-21T11:52:49;0.80;99.90
20442;DHT22;10380;52.102;20.614;2023-11-21T11:55:19;1.40;99.90
20442;DHT22;10380;52.102;20.614;2023-11-21T11:57:53;0.80;99.90
20442;DHT22;10380;52.102;20.614;2023-11-21T12:00:34;0.80;99.90
20442;DHT22;10380;52.102;20.614;2023-11-21T12:03:06;0.80;99.90
20442;DHT22;10380;52.102;20.614;2023-11-21T12:05:35;0.80;99.90
20442;DHT22;10380;52.102;20.614;2023-11-21T12:08:07;0.70;99.90
20442;DHT22;10380;52.102;20.614;2023-11-21T12:10:36;0.70;99.90
20442;DHT22;10380;52.102;20.614;2023-11-21T12:13:06;0.70;99.90
20442;DHT22;10380;52.102;20.614;2023-11-21T12:15:38;0.90;99.90
20442;DHT22;10380;52.102;20.614;2023-11-21T12:18:07;0.60;99.90
20442;DHT22;10380;52.102;20.614;2023-11-21T12:20:34;0.60;99.90
20442;DHT22;10380;52.102;20.614;2023-11-21T12:23:07;0.60;99.90
20442;DHT22;10380;52.102;20.614;2023-11-21T12:25:37;0.60;99.90
20442;DHT22;10380;52.102;20.614;2023-11-21T12:28:09;0.50;99.90
20442;DHT22;10380;52.102;20.614;2023-11-21T12:30:36;0.50;99.90
20442;DHT22;10380;52.102;20.614;2023-11-21T12:33:05;0.50;99.90
20442;DHT22;10380;52.102;20.614;2023-11-21T12:35:35;0.60;99.90
20442;DHT22;10380;52.102;20.614;2023-11-21T12:38:03;0.50;99.90
20442;DHT22;10380;52.102;20.614;2023-11-21T12:40:31;0.50;99.90
20442;DHT22;10380;52.102;20.614;2023-11-21T12:42:59;0.50;99.90
20442;DHT22;10380;52.102;20.614;2023-11-21T12:45:28;0.50;99.90
20442;DHT22;10380;52.102;20.614;2023-11-21T12:48:04;0.50;99.90
20442;DHT22;10380;52.102;20.614;2023-11-21T12:50:35;0.50;99.90
20442;DHT22;10380;52.102;20.614;2023-11-21T12:55:33;0.60;99.90
20442;DHT22;10380;52.102;20.614;2023-11-21T12:58:06;0.90;99.90
20442;DHT22;10380;52.102;20.614;2023-11-21T13:00:43;0.60;99.90
20442;DHT22;10380;52.102;20.614;2023-11-21T13:03:12;0.70;99.90
20442;DHT22;10380;52.102;20.614;2023-11-21T13:05:44;0.50;99.90
20442;DHT22;10380;52.102;20.614;2023-11-21T13:08:15;0.50;99.90
20442;DHT22;10380;52.102;20.614;2023-11-21T13:10:50;0.50;99.90
20442;DHT22;10380;52.102;20.614;2023-11-21T13:13:17;0.50;99.90
20442;DHT22;10380;52.102;20.614;2023-11-21T13:15:51;0.60;99.90
20442;DHT22;10380;52.102;20.614;2023-11-21T13:18:19;0.60;99.90
20442;DHT22;10380;52.102;20.614;2023-11-21T13:20:49;0.60;99.90
20442;DHT22;10380;52.102;20.614;2023-11-21T13:23:17;0.60;99.90
20442;DHT22;10380;52.102;20.614;2023-11-21T13:25:45;0.60;99.90
20442;DHT22;10380;52.102;20.614;2023-11-21T13:28:23;0.70;99.90
20442;DHT22;10380;52.102;20.614;2023-11-21T13:30:53;0.70;99.90
20442;DHT22;10380;52.102;20.614;2023-11-21T13:33:20;0.50;99.90
20442;DHT22;10380;52.102;20.614;2023-11-21T13:35:54;0.50;99.90
20442;DHT22;10380;52.102;20.614;2023-11-21T13:38:23;0.50;99.90
20442;DHT22;10380;52.102;20.614;2023-11-21T13:40:53;0.50;99.90
20442;DHT22;10380;52.102;20.614;2023-11-21T13:43:24;0.40;99.90
20442;DHT22;10380;52.102;20.614;2023-11-21T13:45:53;0.40;99.90
20442;DHT22;10380;52.102;20.614;2023-11-21T13:48:40;0.50;99.90
20442;DHT22;10380;52.102;20.614;2023-11-21T13:51:09;0.40;99.90
20442;DHT22;10380;52.102;20.614;2023-11-21T13:53:48;0.50;99.90
20442;DHT22;10380;52.102;20.614;2023-11-21T13:56:17;0.50;99.90
20442;DHT22;10380;52.102;20.614;2023-11-21T13:58:51;0.50;99.90
20442;DHT22;10380;52.102;20.614;2023-11-21T14:01:20;0.50;99.90
20442;DHT22;10380;52.102;20.614;2023-11-21T14:04:01;0.40;99.90
20442;DHT22;10380;52.102;20.614;2023-11-21T14:06:45;0.40;99.90
20442;DHT22;10380;52.102;20.614;2023-11-21T14:09:23;0.40;99.90
20442;DHT22;10380;52.102;20.614;2023-11-21T14:11:56;0.30;99.90
20442;DHT22;10380;52.102;20.614;2023-11-21T14:14:26;0.30;99.90
20442;DHT22;10380;52.102;20.614;2023-11-21T14:16:54;0.30;99.90
20442;DHT22;10380;52.102;20.614;2023-11-21T14:19:25;0.20;99.90
20442;DHT22;10380;52.102;20.614;2023-11-21T14:21:58;0.20;99.90
20442;DHT22;10380;52.102;20.614;2023-11-21T14:24:25;0.20;99.90
20442;DHT22;10380;52.102;20.614;2023-11-21T14:26:52;0.20;99.90
20442;DHT22;10380;52.102;20.614;2023-11-21T14:29:21;0.10;99.90
20442;DHT22;10380;52.102;20.614;2023-11-21T14:31:50;0.10;99.90
20442;DHT22;10380;52.102;20.614;2023-11-21T14:34:18;0.10;99.90
20442;DHT22;10380;52.102;20.614;2023-11-21T14:36:49;0.10;99.90
20442;DHT22;10380;52.102;20.614;2023-11-21T14:39:17;0.10;99.90
20442;DHT22;10380;52.102;20.614;2023-11-21T14:41:51;0.10;99.90
20442;DHT22;10380;52.102;20.614;2023-11-21T14:44:20;0.10;99.90
20442;DHT22;10380;52.102;20.614;2023-11-21T14:46:50;0.00;99.90
20442;DHT22;10380;52.102;20.614;2023-11-21T14:49:19;0.00;99.90
20442;DHT22;10380;52.102;20.614;2023-11-21T14:51:48;0.00;99.90
20442;DHT22;10380;52.102;20.614;2023-11-21T14:54:28;0.00;99.90
20442;DHT22;10380;52.102;20.614;2023-11-21T14:57:13;0.10;99.90
20442;DHT22;10380;52.102;20.614;2023-11-21T14:59:47;0.00;99.90
20442;DHT22;10380;52.102;20.614;2023-11-21T15:02:18;0.00;99.90
20442;DHT22;10380;52.102;20.614;2023-11-21T15:05:09;0.00;99.90
20442;DHT22;10380;52.102;20.614;2023-11-21T15:07:44;0.00;99.90
20442;DHT22;10380;52.102;20.614;2023-11-21T15:10:12;0.40;99.90
20442;DHT22;10380;52.102;20.614;2023-11-21T15:12:43;0.00;99.90
20442;DHT22;10380;52.102;20.614;2023-11-21T15:15:11;-0.10;99.90
20442;DHT22;10380;52.102;20.614;2023-11-21T15:17:41;-0.10;99.90
20442;DHT22;10380;52.102;20.614;2023-11-21T15:20:11;-0.10;99.90
20442;DHT22;10380;52.102;20.614;2023-11-21T15:22:45;-0.10;99.90
20442;DHT22;10380;52.102;20.614;2023-11-21T15:25:12;-0.10;99.90
20442;DHT22;10380;52.102;20.614;2023-11-21T15:27:40;-0.20;99.90
20442;DHT22;10380;52.102;20.614;2023-11-21T15:30:08;-0.20;99.90
20442;DHT22;10380;52.102;20.614;2023-11-21T15:32:35;-0.20;99.90
20442;DHT22;10380;52.102;20.614;2023-11-21T15:35:02;0.40;99.90
20442;DHT22;10380;52.102;20.614;2023-11-21T15:37:29;-0.20;99.90
20442;DHT22;10380;52.102;20.614;2023-11-21T15:39:57;-0.20;99.90
20442;DHT22;10380;52.102;20.614;2023-11-21T15:42:24;-0.20;99.90
20442;DHT22;10380;52.102;20.614;2023-11-21T15:44:51;0.20;99.90
20442;DHT22;10380;52.102;20.614;2023-11-21T15:47:18;-0.20;99.90
20442;DHT22;10380;52.102;20.614;2023-11-21T15:49:45;-0.20;99.90
20442;DHT22;10380;52.102;20.614;2023-11-21T15:52:16;-0.20;99.90
20442;DHT22;10380;52.102;20.614;2023-11-21T15:54:44;-0.20;99.90